Sedro Woolley, Washington
Current Conditions -  °F | °C
As of 8:55 AM on Saturday 22 Nov 2014 (Local Time) from KBVS Reporting Station
Broken Clouds Broken Clouds  
Wind Chill: 41°   Ceiling: 4400
Heat Index: 45°   Visibility: 10mi
Dew Point: 45°   Wind: 7mph
Humidity: 100%   Direction: 190°S
Pressure: 29.72"   Gusts: NA
Location:  48.54°N, 122.19°W
Report Text: KBVS 221655Z AUTO 19006KT 10SM FEW004 SCT036 BKN044 07/07 A2972 RMK A01 P001
Loading
Personal Weather Stations






























Interactive Weather Map New forecast layout! Learn more

10-Day Weather Forecast

Advertisements
Track Severe Weather on mobile